Time;durP1;ratioP1;P1;durP2;ratioP2;P2;SDS_P1;SDS_P2;PMS_P1;PMS_P2;Temp;Humidity;BMP_temperature;BMP_pressure;BME280_temperature;BME280_humidity;BME280_pressure;Samples;Min_cycle;Max_cycle;Signal;HPM_P1;HPM_P2
2023/05/04 00:01:01;;;;;;;3.45;1.50;;;;;;;17.93;64.28;96956.88;10408632;28;20569;-29
2023/05/04 00:06:02;;;;;;;2.30;1.43;;;;;;;17.92;61.09;96956.03;10408177;28;20382;-30
2023/05/04 00:11:02;;;;;;;1.50;1.37;;;;;;;17.85;58.64;96954.31;10409214;28;20284;-29
2023/05/04 00:16:03;;;;;;;1.10;1.00;;;;;;;17.82;57.24;96948.38;10400338;28;20668;-29
2023/05/04 00:21:03;;;;;;;2.47;1.42;;;;;;;17.80;57.28;96947.50;10409152;28;20291;-29
2023/05/04 00:26:04;;;;;;;1.88;0.88;;;;;;;17.78;56.88;96944.13;10407494;28;20378;-29
2023/05/04 00:31:07;;;;;;;0.97;0.80;;;;;;;17.77;56.76;96947.50;10407638;28;20056;-30
2023/05/04 00:36:07;;;;;;;1.38;0.95;;;;;;;17.74;56.47;96929.75;10407570;28;20284;-30
2023/05/04 00:41:07;;;;;;;1.70;1.42;;;;;;;17.77;56.53;96947.50;10408326;28;20029;-29
2023/05/04 00:46:09;;;;;;;1.13;0.93;;;;;;;17.75;56.50;96932.28;10406857;28;20044;-29
2023/05/04 00:51:11;;;;;;;2.25;0.68;;;;;;;17.75;56.53;96929.75;10408203;28;20788;-29
2023/05/04 00:56:13;;;;;;;1.80;1.23;;;;;;;17.86;62.52;96928.16;10413854;28;20029;-29
2023/05/04 01:01:13;;;;;;;2.17;1.40;;;;;;;17.91;63.24;96926.47;10415760;28;20028;-29
2023/05/04 01:06:22;;;;;;;1.47;1.00;;;;;;;17.93;61.27;96927.31;10410716;28;20057;-30
2023/05/04 01:11:36;;;;;;;2.05;1.30;;;;;;;17.86;60.35;96924.75;10412808;28;20452;-30
2023/05/04 01:16:36;;;;;;;2.15;1.10;;;;;;;17.81;57.60;96921.34;10421309;28;20405;-31
2023/05/04 01:21:37;;;;;;;1.43;1.07;;;;;;;17.79;57.89;96925.56;10415391;28;20030;-30
2023/05/04 01:26:41;;;;;;;1.45;0.98;;;;;;;17.77;57.24;96922.19;10415127;28;20304;-30
2023/05/04 01:31:43;;;;;;;0.90;0.90;;;;;;;17.75;56.93;96924.69;10413129;28;20038;-29
2023/05/04 01:36:44;;;;;;;1.92;1.13;;;;;;;17.75;56.67;96931.44;10414287;28;20068;-29
2023/05/04 01:41:45;;;;;;;1.80;1.00;;;;;;;17.74;56.62;96927.22;10413635;28;20271;-29
2023/05/04 01:46:45;;;;;;;1.50;0.90;;;;;;;17.74;56.50;96932.28;10409535;28;20041;-30
2023/05/04 01:51:48;;;;;;;0.63;0.63;;;;;;;17.74;56.26;96932.28;10414571;28;20041;-29
2023/05/04 01:56:48;;;;;;;1.10;1.00;;;;;;;17.79;58.95;96928.09;10413855;28;20564;-28
2023/05/04 02:01:49;;;;;;;3.17;1.60;;;;;;;17.88;62.90;96928.13;10412151;28;20131;-29
2023/05/04 02:06:50;;;;;;;1.73;1.23;;;;;;;17.91;62.57;96928.16;10412913;28;20044;-29
2023/05/04 02:11:51;;;;;;;3.88;1.65;;;;;;;17.88;60.61;96923.94;10413490;28;20048;-30
2023/05/04 02:16:51;;;;;;;0.90;0.90;;;;;;;17.79;58.26;96921.34;10412959;28;20358;-29
2023/05/04 02:21:51;;;;;;;1.13;1.00;;;;;;;17.77;57.40;96924.72;10413347;28;20515;-29
2023/05/04 02:26:52;;;;;;;1.57;0.97;;;;;;;17.74;57.07;96919.63;10412398;28;20038;-30
2023/05/04 02:31:52;;;;;;;1.60;0.87;;;;;;;17.75;56.77;96926.38;10411440;28;20033;-29
2023/05/04 02:36:53;;;;;;;1.10;1.00;;;;;;;17.74;56.68;96919.63;10412785;28;20036;-29
2023/05/04 02:41:53;;;;;;;1.87;1.00;;;;;;;17.73;56.69;96923.84;10412128;28;20051;-29
2023/05/04 02:46:53;;;;;;;1.00;0.73;;;;;;;17.73;56.75;96923.00;10409902;28;20081;-29
2023/05/04 02:51:55;;;;;;;1.48;0.70;;;;;;;17.72;56.42;96918.75;10412521;28;20512;-31
2023/05/04 02:56:55;;;;;;;1.63;1.00;;;;;;;17.71;56.32;96914.53;10411071;28;20049;-29
2023/05/04 03:01:56;;;;;;;1.80;1.63;;;;;;;17.83;61.90;96919.69;10409900;28;20048;-29
2023/05/04 03:06:56;;;;;;;1.20;1.10;;;;;;;17.88;62.33;96912.94;10411117;28;20045;-29
2023/05/04 03:11:56;;;;;;;2.57;1.47;;;;;;;17.87;60.58;96911.25;10411171;28;20147;-29
2023/05/04 03:16:57;;;;;;;2.90;1.17;;;;;;;17.80;59.62;96899.38;10409832;28;20417;-30
2023/05/04 03:21:58;;;;;;;1.67;1.08;;;;;;;17.76;57.27;96897.69;10409790;28;20037;-29
2023/05/04 03:26:58;;;;;;;0.90;0.60;;;;;;;17.74;57.09;96891.78;10408845;28;20404;-29
2023/05/04 03:31:59;;;;;;;0.98;0.70;;;;;;;17.72;56.87;96895.97;10408524;28;20288;-29
2023/05/04 03:36:59;;;;;;;1.65;0.98;;;;;;;17.73;56.56;96892.63;10410096;28;20109;-29
2023/05/04 03:42:01;;;;;;;2.05;0.90;;;;;;;17.72;56.62;96895.97;10409871;28;20032;-29
2023/05/04 03:47:01;;;;;;;2.03;1.33;;;;;;;17.72;56.62;96888.38;10405127;28;20025;-28
2023/05/04 03:52:03;;;;;;;3.55;0.98;;;;;;;17.71;58.05;96885.00;10407692;28;20087;-29
2023/05/04 03:57:03;;;;;;;0.93;0.80;;;;;;;17.68;56.59;96891.72;10406682;28;20574;-29
2023/05/04 04:02:05;;;;;;;1.70;1.30;;;;;;;17.81;61.11;96888.41;10406576;28;20033;-30
2023/05/04 04:07:06;;;;;;;2.50;1.23;;;;;;;17.87;61.87;96891.00;10408203;28;20037;-29
2023/05/04 04:12:06;;;;;;;1.27;0.90;;;;;;;17.91;61.56;96892.72;10406472;28;20040;-29
2023/05/04 04:17:07;;;;;;;2.67;0.90;;;;;;;17.88;56.91;96885.06;10408301;28;20029;-29
2023/05/04 04:22:07;;;;;;;1.10;0.90;;;;;;;17.86;56.46;96881.69;10408288;28;20055;-29
2023/05/04 04:27:07;;;;;;;1.00;0.90;;;;;;;17.89;56.28;96884.25;10403992;28;20036;-29
2023/05/04 04:32:08;;;;;;;0.70;0.67;;;;;;;17.89;56.29;96889.31;10407126;28;20115;-31
2023/05/04 04:37:08;;;;;;;0.90;0.90;;;;;;;17.87;56.05;96891.00;10407934;28;20112;-29
2023/05/04 04:42:09;;;;;;;3.03;0.97;;;;;;;17.89;55.70;96886.78;10407653;28;20049;-30
2023/05/04 04:47:10;;;;;;;5.43;2.80;;;;;;;17.79;56.45;96893.50;10405745;28;20302;-31
2023/05/04 04:52:10;;;;;;;6.28;3.70;;;;;;;17.54;54.91;96890.78;10408342;28;20045;-29
2023/05/04 04:57:11;;;;;;;2.80;2.40;;;;;;;17.74;55.75;96899.38;10406932;28;20029;-28
2023/05/04 05:02:11;;;;;;;5.33;2.47;;;;;;;17.83;55.18;96892.66;10406755;28;20288;-29
2023/05/04 05:07:11;;;;;;;5.63;2.67;;;;;;;17.94;56.43;96892.72;10407344;28;20029;-30
2023/05/04 05:12:12;;;;;;;7.40;3.63;;;;;;;17.84;54.66;96888.44;10405781;28;20037;-30
2023/05/04 05:17:12;;;;;;;5.67;2.43;;;;;;;17.88;55.17;96882.53;10404790;28;20068;-29
2023/05/04 05:22:13;;;;;;;10.68;2.80;;;;;;;17.82;55.13;96882.53;10407665;28;20036;-29
2023/05/04 05:27:13;;;;;;;5.53;2.80;;;;;;;17.80;55.51;96894.31;10405109;28;20033;-29
2023/05/04 05:32:13;;;;;;;4.33;2.13;;;;;;;17.84;55.31;96901.13;10402214;28;20037;-30
2023/05/04 05:37:14;;;;;;;3.43;2.07;;;;;;;17.85;55.01;96897.75;10405988;28;20079;-29
2023/05/04 05:42:14;;;;;;;3.80;2.20;;;;;;;17.83;55.30;96904.50;10406467;28;20044;-28
2023/05/04 05:47:15;;;;;;;7.43;1.75;;;;;;;17.85;55.28;96908.72;10411653;28;20036;-30
2023/05/04 05:52:16;;;;;;;2.58;1.73;;;;;;;17.84;55.39;96907.00;10414652;28;20116;-29
2023/05/04 05:57:17;;;;;;;5.80;1.98;;;;;;;17.84;55.20;96904.47;10410487;28;20478;-29
2023/05/04 06:02:17;;;;;;;2.42;1.88;;;;;;;17.84;55.30;96908.72;10413309;28;20044;-30
2023/05/04 06:07:18;;;;;;;2.37;2.03;;;;;;;17.86;55.52;96907.03;10414170;28;20053;-29
2023/05/04 06:12:18;;;;;;;9.93;2.40;;;;;;;18.02;57.81;96906.25;10413213;28;20037;-30
2023/05/04 06:17:20;;;;;;;8.00;2.27;;;;;;;18.09;58.73;96903.75;10411420;28;20037;-29
2023/05/04 06:22:20;;;;;;;4.88;2.28;;;;;;;18.00;56.63;96900.34;10413397;28;20033;-30
2023/05/04 06:27:21;;;;;;;13.53;3.63;;;;;;;17.92;55.50;96891.88;10391211;28;20046;-29
2023/05/04 06:32:21;;;;;;;7.77;3.10;;;;;;;17.85;55.54;96877.47;10401723;28;20554;-30
2023/05/04 06:37:22;;;;;;;8.50;2.20;;;;;;;17.84;55.62;96881.69;10387270;28;20121;-28
2023/05/04 06:42:22;;;;;;;22.38;3.35;;;;;;;17.83;55.35;96867.31;10386084;28;20405;-30
2023/05/04 06:47:24;;;;;;;14.48;4.30;;;;;;;17.82;54.28;96852.16;10384450;28;20516;-29
2023/05/04 06:52:24;;;;;;;9.68;2.28;;;;;;;17.82;55.14;96857.22;10370839;28;20032;-31
2023/05/04 06:57:25;;;;;;;5.37;2.00;;;;;;;17.80;55.02;96851.28;10383556;28;20029;-29
2023/05/04 07:02:25;;;;;;;9.95;3.03;;;;;;;17.81;55.13;96858.03;10375782;28;20287;-30
2023/05/04 07:07:26;;;;;;;9.50;2.13;;;;;;;17.81;55.45;96850.44;10391337;28;20030;-29
2023/05/04 07:12:26;;;;;;;10.43;4.95;;;;;;;17.87;55.05;96850.47;10378117;28;20490;-30
2023/05/04 07:17:29;;;;;;;7.50;3.20;;;;;;;17.98;56.28;96846.31;10377406;28;20060;-29
2023/05/04 07:22:30;;;;;;;7.82;3.25;;;;;;;17.99;55.76;96840.41;10400132;28;20076;-29
2023/05/04 07:27:31;;;;;;;18.90;3.67;;;;;;;17.93;56.76;96842.91;10392072;28;20049;-30
2023/05/04 07:32:31;;;;;;;11.38;3.47;;;;;;;17.89;55.73;96838.66;10391867;28;20041;-30
2023/05/04 07:37:32;;;;;;;8.40;2.17;;;;;;;17.84;55.46;96841.16;10378125;28;20037;-30
2023/05/04 07:42:33;;;;;;;9.13;3.30;;;;;;;17.84;55.77;96840.34;10393027;28;20071;-29
2023/05/04 07:47:33;;;;;;;15.52;2.42;;;;;;;17.82;55.32;96840.31;10393362;28;20440;-29
2023/05/04 07:52:34;;;;;;;6.00;2.57;;;;;;;17.81;55.39;96846.22;10393460;28;20033;-29
2023/05/04 07:57:36;;;;;;;7.37;1.83;;;;;;;17.80;55.66;96839.47;10380272;28;20712;-29
2023/05/04 08:02:36;;;;;;;3.92;1.77;;;;;;;17.76;55.37;96841.97;10377410;28;20664;-29
2023/05/04 08:07:37;;;;;;;6.20;2.13;;;;;;;17.79;55.22;96850.44;10367694;28;20034;-29
2023/05/04 08:12:39;;;;;;;4.82;2.15;;;;;;;17.79;55.35;96858.03;10382430;28;20041;-29
2023/05/04 08:17:42;;;;;;;5.72;2.88;;;;;;;17.95;58.26;96864.00;10379150;28;20040;-29
2023/05/04 08:22:43;;;;;;;6.30;2.95;;;;;;;18.03;57.85;96863.22;10376422;28;20084;-29
2023/05/04 08:27:44;;;;;;;7.60;2.27;;;;;;;17.98;56.88;96858.97;10382942;28;20030;-29
2023/05/04 08:32:44;;;;;;;3.53;1.73;;;;;;;17.89;55.42;96869.91;10375061;28;20128;-30
2023/05/04 08:37:46;;;;;;;5.57;1.65;;;;;;;17.83;55.01;96876.63;10384356;28;20405;-30
2023/05/04 08:42:49;;;;;;;4.20;1.80;;;;;;;17.81;55.21;96875.75;10381976;28;20037;-29
2023/05/04 08:47:49;;;;;;;4.03;1.77;;;;;;;17.81;55.17;96878.28;10384290;28;20077;-29
2023/05/04 08:52:51;;;;;;;1.85;1.52;;;;;;;17.77;55.27;96871.53;10375574;28;20491;-29
2023/05/04 08:57:52;;;;;;;2.90;1.60;;;;;;;17.77;55.05;96874.06;10388037;28;20441;-29
2023/05/04 09:02:54;;;;;;;4.88;2.30;;;;;;;17.80;55.24;96881.66;10380538;28;20125;-29
2023/05/04 09:07:54;;;;;;;3.63;2.25;;;;;;;17.79;55.22;96880.84;10367350;28;20042;-29
2023/05/04 09:12:55;;;;;;;5.35;2.72;;;;;;;17.79;55.14;96872.38;10383136;28;20099;-30
2023/05/04 09:18:05;;;;;;;3.45;2.15;;;;;;;17.81;56.79;96861.41;10383182;28;20474;-30
2023/05/04 09:23:07;;;;;;;6.35;3.17;;;;;;;17.98;58.53;96861.50;10382925;28;20033;-29
2023/05/04 09:28:07;;;;;;;5.82;2.90;;;;;;;18.03;57.63;96865.75;10397391;28;20034;-30
2023/05/04 09:33:09;;;;;;;5.17;4.13;;;;;;;17.95;55.68;96864.00;10377746;28;20516;-28
2023/05/04 09:38:10;;;;;;;10.10;3.60;;;;;;;17.90;55.85;96864.00;10382601;28;20149;-29
2023/05/04 09:43:12;;;;;;;15.65;4.88;;;;;;;17.90;57.06;96855.56;10386026;28;20037;-30
2023/05/04 09:48:20;;;;;;;11.65;3.85;;;;;;;17.86;56.01;96858.91;10392270;28;20041;-29
2023/05/04 09:53:23;;;;;;;11.50;3.88;;;;;;;17.84;56.01;96850.47;10373666;28;20417;-29
2023/05/04 09:58:24;;;;;;;6.10;2.95;;;;;;;17.82;55.64;96842.03;10397723;28;20025;-29
2023/05/04 10:03:25;;;;;;;5.70;2.75;;;;;;;17.81;55.47;96835.22;10381804;28;20457;-29
2023/05/04 10:08:27;;;;;;;4.82;2.88;;;;;;;17.80;55.49;96828.47;10378391;28;20030;-29
2023/05/04 10:13:28;;;;;;;13.82;4.85;;;;;;;17.80;56.06;96813.28;10387394;28;20031;-29
2023/05/04 10:19:02;;;;;;;10.70;3.17;;;;;;;17.81;56.04;96818.38;10384775;28;20038;-30
2023/05/04 10:24:21;;;;;;;5.85;3.28;;;;;;;17.93;57.01;96804.91;10372691;28;20048;-30
2023/05/04 10:29:24;;;;;;;3.88;2.88;;;;;;;18.08;58.42;96799.91;10379689;28;20274;-28
2023/05/04 10:34:27;;;;;;;3.95;2.97;;;;;;;18.02;57.35;96794.81;10398643;28;20030;-29
2023/05/04 10:39:32;;;;;;;8.30;3.00;;;;;;;17.91;55.61;96792.22;10386310;28;20064;-29
2023/05/04 10:44:34;;;;;;;7.50;2.75;;;;;;;17.88;55.41;96787.16;10376131;28;20044;-29
2023/05/04 10:49:35;;;;;;;6.10;2.90;;;;;;;17.89;55.75;96788.00;10384257;28;20041;-31
2023/05/04 10:54:36;;;;;;;5.10;2.60;;;;;;;17.86;55.49;96773.66;10380103;28;20046;-30
2023/05/04 10:59:38;;;;;;;6.18;3.20;;;;;;;17.85;55.82;96781.25;10374695;28;20307;-29
2023/05/04 11:04:39;;;;;;;6.03;2.75;;;;;;;17.83;55.63;96767.72;10381184;28;20485;-30
2023/05/04 11:09:43;;;;;;;13.60;5.57;;;;;;;17.84;56.12;96764.34;10374078;28;20042;-30
2023/05/04 11:14:43;;;;;;;14.18;6.95;;;;;;;17.82;55.64;96751.69;10370339;28;20049;-29
2023/05/04 11:19:50;;;;;;;10.00;5.10;;;;;;;17.81;55.73;96749.13;10387912;28;20400;-29
2023/05/04 11:24:51;;;;;;;13.93;4.28;;;;;;;17.83;58.76;96734.81;10377129;28;20037;-29
2023/05/04 11:30:03;;;;;;;10.85;4.13;;;;;;;18.03;59.15;96735.69;10380069;28;20417;-28
2023/05/04 11:35:07;;;;;;;10.73;3.60;;;;;;;18.11;60.01;96734.00;10381931;28;20037;-29
2023/05/04 11:40:12;;;;;;;9.30;3.80;;;;;;;18.00;58.81;96733.16;10375907;28;20456;-30
2023/05/04 11:45:20;;;;;;;6.13;3.45;;;;;;;17.91;57.35;96731.44;10385700;28;20030;-29
2023/05/04 11:50:21;;;;;;;9.70;3.78;;;;;;;17.88;57.52;96725.53;10381187;28;20044;-29
2023/05/04 11:55:30;;;;;;;5.18;3.25;;;;;;;17.86;57.44;96719.63;10374143;28;20128;-29
2023/05/04 12:00:42;;;;;;;5.30;3.45;;;;;;;17.88;57.11;96720.44;10372224;28;20037;-30
2023/05/04 12:05:46;;;;;;;4.43;2.95;;;;;;;17.88;56.98;96710.31;10377000;28;20044;-29
2023/05/04 12:10:47;;;;;;;6.72;2.80;;;;;;;17.91;56.84;96710.34;10376726;28;20034;-30
2023/05/04 12:15:47;;;;;;;4.20;2.60;;;;;;;17.93;56.56;96708.66;10387912;28;20029;-29
2023/05/04 12:20:48;;;;;;;4.40;3.27;;;;;;;17.94;56.76;96711.22;10377219;28;20490;-29
2023/05/04 12:25:48;;;;;;;3.47;2.60;;;;;;;17.94;56.38;96705.28;10368173;28;20127;-29
2023/05/04 12:30:48;;;;;;;5.07;3.40;;;;;;;18.04;58.68;96696.84;10378025;28;20034;-29
2023/05/04 12:35:49;;;;;;;4.03;2.70;;;;;;;18.13;58.57;96687.56;10378265;28;20041;-29
2023/05/04 12:40:49;;;;;;;3.60;3.30;;;;;;;18.11;57.93;96683.34;10375641;28;20049;-30
2023/05/04 12:45:50;;;;;;;3.30;2.03;;;;;;;18.02;56.52;96680.81;10369190;28;20688;-30
2023/05/04 12:50:51;;;;;;;2.70;2.03;;;;;;;17.98;56.75;96677.41;10369551;28;20042;-29
2023/05/04 12:55:51;;;;;;;4.10;2.55;;;;;;;17.98;56.56;96676.59;10373996;28;20038;-30
2023/05/04 13:00:52;;;;;;;2.63;2.30;;;;;;;17.96;56.55;96678.25;10377554;28;20943;-29
2023/05/04 13:05:52;;;;;;;2.33;2.13;;;;;;;17.95;56.55;96664.75;10386063;28;20034;-29
2023/05/04 13:10:53;;;;;;;3.70;2.33;;;;;;;17.95;56.51;96661.38;10376538;28;20559;-29
2023/05/04 13:15:53;;;;;;;2.63;1.90;;;;;;;17.93;56.55;96648.69;10371350;28;20291;-30
2023/05/04 13:20:56;;;;;;;4.60;2.13;;;;;;;17.94;56.78;96649.56;10370695;28;20049;-29
2023/05/04 13:25:57;;;;;;;2.47;1.65;;;;;;;17.93;56.30;96637.75;10377842;28;20030;-30
2023/05/04 13:30:57;;;;;;;2.80;2.27;;;;;;;17.91;56.40;96637.72;10385005;28;20401;-30
2023/05/04 13:35:57;;;;;;;3.47;2.47;;;;;;;18.03;58.57;96620.03;10385376;28;20575;-30
2023/05/04 13:40:58;;;;;;;3.58;2.53;;;;;;;18.18;58.85;96616.63;10391063;28;20284;-29
2023/05/04 13:46:03;;;;;;;5.63;2.53;;;;;;;18.11;57.77;96617.47;10386184;28;20057;-29
2023/05/04 13:51:03;;;;;;;2.80;1.75;;;;;;;18.00;56.63;96616.63;10376920;28;20045;-29
2023/05/04 13:56:04;;;;;;;4.00;2.00;;;;;;;17.96;56.66;96612.41;10373359;28;20489;-29
2023/05/04 14:01:04;;;;;;;3.72;1.80;;;;;;;17.94;56.56;96598.91;10386149;28;20293;-29
2023/05/04 14:06:05;;;;;;;3.50;2.00;;;;;;;17.95;57.38;96610.72;10382415;28;20041;-29
2023/05/04 14:11:07;;;;;;;7.47;2.25;;;;;;;17.95;57.30;96598.06;10388490;28;20314;-30
2023/05/04 14:16:08;;;;;;;4.82;2.75;;;;;;;17.95;57.39;96600.59;10383578;28;20048;-29
2023/05/04 14:21:08;;;;;;;4.87;2.27;;;;;;;17.95;57.21;96590.44;10382698;28;20533;-29
2023/05/04 14:26:10;;;;;;;2.97;1.90;;;;;;;17.93;57.06;96589.63;10386735;28;20415;-29
2023/05/04 14:31:10;;;;;;;2.75;2.30;;;;;;;17.94;57.27;96581.16;10379196;28;20033;-29
2023/05/04 14:36:11;;;;;;;4.30;2.40;;;;;;;17.94;57.55;96579.50;10388548;28;20488;-29
2023/05/04 14:41:13;;;;;;;2.88;2.00;;;;;;;18.10;57.93;96585.38;10389315;28;20092;-29
2023/05/04 14:46:15;;;;;;;2.90;2.60;;;;;;;18.20;57.80;96582.00;10386973;28;20091;-29
2023/05/04 14:51:23;;;;;;;2.85;2.20;;;;;;;18.10;57.32;96580.31;10397562;28;20029;-29
2023/05/04 14:56:23;;;;;;;5.13;1.95;;;;;;;18.01;56.69;96570.19;10388111;28;20493;-29
2023/05/04 15:01:24;;;;;;;2.33;1.90;;;;;;;17.95;56.63;96560.06;10371990;28;20026;-29
2023/05/04 15:06:26;;;;;;;2.67;1.70;;;;;;;17.93;56.68;96561.75;10378827;28;20092;-29
2023/05/04 15:11:26;;;;;;;3.78;1.90;;;;;;;17.90;56.74;96554.16;10376171;28;20045;-29
2023/05/04 15:16:30;;;;;;;2.43;1.90;;;;;;;17.90;56.67;96561.75;10382459;28;20036;-30
2023/05/04 15:21:31;;;;;;;1.90;1.60;;;;;;;17.89;56.44;96549.91;10370757;28;20122;-29
2023/05/04 15:26:33;;;;;;;1.83;1.73;;;;;;;17.89;56.68;96547.38;10382951;28;20410;-29
2023/05/04 15:31:33;;;;;;;1.67;1.48;;;;;;;17.81;56.57;96536.41;10375489;28;20518;-29
2023/05/04 15:36:34;;;;;;;1.93;1.73;;;;;;;17.88;56.57;96548.25;10378673;28;20155;-29
2023/05/04 15:41:34;;;;;;;4.53;2.70;;;;;;;17.95;58.72;96544.88;10391238;28;20786;-29
2023/05/04 15:46:35;;;;;;;4.68;1.92;;;;;;;18.11;57.50;96538.94;10386887;28;20040;-29
2023/05/04 15:51:35;;;;;;;4.45;2.20;;;;;;;18.14;58.02;96534.72;10375155;28;20269;-29
2023/05/04 15:56:36;;;;;;;2.27;1.70;;;;;;;18.06;57.16;96543.16;10377548;28;20064;-29
2023/05/04 16:01:38;;;;;;;2.53;1.70;;;;;;;17.95;56.67;96535.59;10390821;28;20291;-29
2023/05/04 16:06:39;;;;;;;2.20;2.03;;;;;;;17.93;57.04;96533.91;10387251;28;20291;-29
2023/05/04 16:11:39;;;;;;;3.88;1.73;;;;;;;17.88;56.41;96531.38;10393325;28;20504;-30
2023/05/04 16:16:40;;;;;;;3.58;1.55;;;;;;;17.85;56.19;96541.50;10397119;28;20037;-29
2023/05/04 16:21:40;;;;;;;2.10;1.90;;;;;;;17.80;57.01;96524.59;10381735;28;20030;-30
2023/05/04 16:26:41;;;;;;;3.90;1.60;;;;;;;17.84;56.00;96536.44;10368754;28;20038;-29
2023/05/04 16:31:41;;;;;;;2.90;1.80;;;;;;;17.85;56.30;96533.06;10371578;28;20027;-30
2023/05/04 16:36:42;;;;;;;4.97;2.27;;;;;;;18.06;58.63;96527.94;10380313;28;20302;-29
2023/05/04 16:41:45;;;;;;;3.88;2.65;;;;;;;18.16;59.07;96529.66;10375304;28;20038;-30
2023/05/04 16:46:45;;;;;;;3.33;2.17;;;;;;;18.07;58.61;96533.03;10373141;28;20034;-29
2023/05/04 16:51:46;;;;;;;2.30;2.10;;;;;;;17.97;56.71;96533.03;10367957;28;20029;-29
2023/05/04 16:56:47;;;;;;;2.90;1.40;;;;;;;17.93;56.59;96534.72;10388872;28;20281;-29
2023/05/04 17:01:47;;;;;;;2.30;1.58;;;;;;;17.90;56.81;96536.44;10377071;28;20073;-29
2023/05/04 17:06:47;;;;;;;4.27;1.70;;;;;;;17.89;56.55;96533.06;10371774;28;20573;-29
2023/05/04 17:11:48;;;;;;;2.47;1.43;;;;;;;17.88;56.91;96538.09;10374267;28;20507;-29
2023/05/04 17:16:48;;;;;;;2.93;1.93;;;;;;;17.90;57.75;96539.81;10380717;28;20022;-29
2023/05/04 17:21:48;;;;;;;8.87;2.63;;;;;;;17.98;58.86;96547.41;10366857;28;20103;-29
2023/05/04 17:26:49;;;;;;;6.80;2.67;;;;;;;18.13;58.56;96543.16;10379422;28;20044;-30
2023/05/04 17:31:50;;;;;;;4.70;2.00;;;;;;;18.16;58.76;96550.75;10373265;28;20034;-29
2023/05/04 17:36:50;;;;;;;5.50;2.10;;;;;;;18.05;57.03;96552.47;10371071;28;20339;-30
2023/05/04 17:41:50;;;;;;;2.25;1.88;;;;;;;17.99;56.49;96555.00;10380885;28;20030;-30
2023/05/04 17:46:51;;;;;;;3.60;1.60;;;;;;;17.95;56.47;96553.31;10379899;28;20125;-29
2023/05/04 17:51:52;;;;;;;2.40;1.60;;;;;;;17.97;56.30;96568.50;10374175;28;20038;-29
2023/05/04 17:56:52;;;;;;;3.92;1.50;;;;;;;17.95;56.28;96576.13;10384859;28;20052;-29
2023/05/04 18:01:53;;;;;;;3.10;1.27;;;;;;;17.93;56.18;96575.25;10378214;28;20551;-29
2023/05/04 18:06:53;;;;;;;3.03;1.70;;;;;;;17.92;56.66;96575.28;10373666;28;20026;-29
2023/05/04 18:11:53;;;;;;;7.77;2.53;;;;;;;17.96;58.48;96582.00;10384392;28;20269;-29
2023/05/04 18:16:54;;;;;;;3.13;2.47;;;;;;;18.12;60.43;96588.75;10386806;28;20144;-30
2023/05/04 18:21:54;;;;;;;3.27;2.00;;;;;;;18.17;60.51;96597.22;10414201;28;20048;-30
2023/05/04 18:26:55;;;;;;;2.57;1.77;;;;;;;18.07;58.13;96605.66;10392704;28;20303;-29
2023/05/04 18:31:55;;;;;;;1.70;1.50;;;;;;;17.97;56.50;96609.03;10399805;28;20044;-29
2023/05/04 18:36:55;;;;;;;3.40;1.98;;;;;;;17.93;56.71;96612.41;10397267;28;20052;-29
2023/05/04 18:41:58;;;;;;;1.93;1.63;;;;;;;17.91;56.86;96625.06;10404092;28;20083;-30
2023/05/04 18:46:58;;;;;;;2.53;1.60;;;;;;;17.90;56.58;96632.69;10381851;28;20029;-30
2023/05/04 18:52:02;;;;;;;3.27;1.60;;;;;;;17.89;56.32;96639.41;10373975;28;20037;-29
2023/05/04 18:57:02;;;;;;;1.70;1.42;;;;;;;17.88;56.38;96647.00;10371861;28;20116;-29
2023/05/04 19:02:02;;;;;;;4.30;3.80;;;;;;;18.08;62.89;96658.03;10382737;28;20036;-29
2023/05/04 19:07:03;;;;;;;5.05;2.90;;;;;;;18.16;62.22;96661.41;10375408;28;20034;-29
2023/05/04 19:12:03;;;;;;;5.63;1.80;;;;;;;18.07;58.16;96667.28;10392161;28;20121;-29
2023/05/04 19:17:06;;;;;;;2.25;1.60;;;;;;;17.96;57.30;96668.13;10416851;28;20450;-29
2023/05/04 19:22:07;;;;;;;1.88;1.52;;;;;;;17.91;56.64;96679.97;10389987;28;20039;-30
2023/05/04 19:27:08;;;;;;;1.90;1.43;;;;;;;17.90;56.53;96689.22;10402106;28;20043;-29
2023/05/04 19:32:08;;;;;;;3.20;1.50;;;;;;;17.89;56.33;96699.34;10423115;28;20029;-29
2023/05/04 19:37:08;;;;;;;1.93;1.23;;;;;;;17.88;56.43;96705.25;10423398;28;20052;-30
2023/05/04 19:42:09;;;;;;;1.97;1.40;;;;;;;17.87;56.14;96712.03;10406674;28;20116;-31
2023/05/04 19:47:09;;;;;;;1.60;1.40;;;;;;;17.85;56.16;96713.72;10395769;28;20665;-29
2023/05/04 19:52:10;;;;;;;2.90;2.47;;;;;;;18.03;62.63;96715.41;10374262;28;20414;-30
2023/05/04 19:57:10;;;;;;;3.80;2.40;;;;;;;18.17;61.38;96729.78;10379437;28;20025;-30
2023/05/04 20:02:11;;;;;;;1.97;1.80;;;;;;;18.10;57.81;96725.59;10389189;28;20039;-29
2023/05/04 20:07:11;;;;;;;1.48;1.33;;;;;;;18.00;56.51;96725.56;10369452;28;20021;-29
2023/05/04 20:12:11;;;;;;;4.33;1.37;;;;;;;17.97;56.30;96728.06;10396363;28;20116;-29
2023/05/04 20:17:12;;;;;;;3.33;2.03;;;;;;;17.95;56.42;96732.28;10397073;28;20040;-29
2023/05/04 20:22:13;;;;;;;3.23;1.30;;;;;;;17.94;56.58;96738.22;10419360;28;20515;-29
2023/05/04 20:27:13;;;;;;;1.60;1.50;;;;;;;17.90;56.38;96737.34;10417682;28;20098;-29
2023/05/04 20:32:13;;;;;;;2.07;1.57;;;;;;;17.90;56.46;96736.53;10419876;28;20481;-28
2023/05/04 20:37:14;;;;;;;2.78;1.45;;;;;;;17.86;56.27;96737.34;10419046;28;20040;-29
2023/05/04 20:42:18;;;;;;;3.05;2.40;;;;;;;17.98;58.25;96733.16;10395814;28;20049;-31
2023/05/04 20:47:18;;;;;;;2.55;1.98;;;;;;;18.13;61.64;96742.47;10388357;28;20448;-29
2023/05/04 20:52:18;;;;;;;2.47;2.00;;;;;;;18.14;58.41;96736.53;10369420;28;20032;-30
2023/05/04 20:57:19;;;;;;;5.60;1.77;;;;;;;18.04;59.02;96738.25;10382199;28;20342;-29
2023/05/04 21:02:19;;;;;;;2.03;1.83;;;;;;;17.94;57.71;96735.66;10373991;28;20041;-30
2023/05/04 21:07:19;;;;;;;1.93;1.57;;;;;;;17.92;56.94;96737.38;10368975;28;20056;-29
2023/05/04 21:12:20;;;;;;;1.80;1.60;;;;;;;17.89;56.94;96737.34;10381287;28;20037;-29
2023/05/04 21:17:20;;;;;;;4.50;1.93;;;;;;;17.88;56.71;96745.78;10389252;28;20112;-29
2023/05/04 21:22:20;;;;;;;1.70;1.60;;;;;;;17.86;56.65;96742.41;10377136;28;20037;-29
2023/05/04 21:27:21;;;;;;;2.87;1.40;;;;;;;17.85;56.38;96750.84;10388332;28;20669;-30
2023/05/04 21:32:21;;;;;;;2.47;1.85;;;;;;;17.84;56.50;96754.22;10388265;28;20052;-29
2023/05/04 21:37:22;;;;;;;5.43;2.40;;;;;;;18.03;60.17;96748.34;10375957;28;20021;-29
2023/05/04 21:42:22;;;;;;;3.70;2.63;;;;;;;18.15;61.93;96751.75;10383050;28;20061;-29
2023/05/04 21:47:23;;;;;;;1.63;1.50;;;;;;;18.08;58.36;96754.28;10381910;28;20034;-29
2023/05/04 21:52:23;;;;;;;1.55;1.45;;;;;;;17.99;58.55;96749.22;10382168;28;20109;-29
2023/05/04 21:57:24;;;;;;;1.80;1.70;;;;;;;17.91;57.41;96750.88;10388771;28;20029;-30
2023/05/04 22:02:25;;;;;;;1.88;1.77;;;;;;;17.89;56.79;96763.53;10388255;28;20303;-30
2023/05/04 22:07:26;;;;;;;1.60;1.23;;;;;;;17.87;56.52;96759.28;10374805;28;20053;-29
2023/05/04 22:12:26;;;;;;;1.60;1.50;;;;;;;17.86;56.36;96757.59;10381765;28;20040;-29
2023/05/04 22:17:26;;;;;;;2.47;2.20;;;;;;;17.85;56.38;96755.91;10380942;28;20030;-29
2023/05/04 22:22:27;;;;;;;2.03;1.50;;;;;;;17.84;56.37;96764.34;10380092;28;20034;-29
2023/05/04 22:27:27;;;;;;;2.13;1.93;;;;;;;17.89;59.33;96770.25;10377251;28;20042;-29
2023/05/04 22:32:30;;;;;;;2.30;2.10;;;;;;;18.08;61.40;96764.44;10404835;28;20462;-30
2023/05/04 22:37:30;;;;;;;1.65;1.30;;;;;;;18.13;58.24;96762.72;10373268;28;20109;-30
2023/05/04 22:42:30;;;;;;;2.97;1.40;;;;;;;18.03;58.90;96782.16;10386784;28;20120;-30
2023/05/04 22:47:31;;;;;;;2.35;1.40;;;;;;;17.95;58.38;96782.94;10384273;28;20041;-29
2023/05/04 22:52:31;;;;;;;1.70;1.60;;;;;;;17.91;57.56;96786.34;10371493;28;20046;-29
2023/05/04 22:57:32;;;;;;;1.40;1.30;;;;;;;17.87;56.95;96780.41;10385701;28;20030;-29
2023/05/04 23:02:32;;;;;;;1.52;1.42;;;;;;;17.86;56.77;96790.53;10390057;28;20039;-30
2023/05/04 23:07:33;;;;;;;2.87;1.97;;;;;;;17.85;56.56;96791.38;10379971;28;20041;-29
2023/05/04 23:12:33;;;;;;;1.30;1.15;;;;;;;17.83;56.38;96788.81;10379909;28;20065;-29
2023/05/04 23:17:37;;;;;;;1.87;1.70;;;;;;;17.83;56.41;96785.47;10386762;28;20116;-29